sensor_id;sensor_type;location;lat;lon;timestamp;P1;durP1;ratioP1;P2;durP2;ratioP2
11777;SDS011;5946;51.770;8.548;2023-07-31T00:02:24;7.43;;;5.20;;
11777;SDS011;5946;51.770;8.548;2023-07-31T00:04:50;6.03;;;5.00;;
11777;SDS011;5946;51.770;8.548;2023-07-31T00:07:16;7.57;;;5.27;;
11777;SDS011;5946;51.770;8.548;2023-07-31T00:09:43;9.93;;;5.57;;
11777;SDS011;5946;51.770;8.548;2023-07-31T00:12:09;8.40;;;6.07;;
11777;SDS011;5946;51.770;8.548;2023-07-31T00:14:35;7.97;;;5.33;;
11777;SDS011;5946;51.770;8.548;2023-07-31T00:17:01;9.90;;;6.30;;
11777;SDS011;5946;51.770;8.548;2023-07-31T00:19:27;7.80;;;5.73;;
11777;SDS011;5946;51.770;8.548;2023-07-31T00:21:53;8.00;;;6.40;;
11777;SDS011;5946;51.770;8.548;2023-07-31T00:24:19;7.23;;;6.30;;
11777;SDS011;5946;51.770;8.548;2023-07-31T00:26:44;9.83;;;6.10;;
11777;SDS011;5946;51.770;8.548;2023-07-31T00:29:10;10.27;;;6.60;;
11777;SDS011;5946;51.770;8.548;2023-07-31T00:31:36;9.87;;;6.90;;
11777;SDS011;5946;51.770;8.548;2023-07-31T00:34:02;9.80;;;6.70;;
11777;SDS011;5946;51.770;8.548;2023-07-31T00:36:28;10.00;;;6.97;;
11777;SDS011;5946;51.770;8.548;2023-07-31T00:38:55;12.07;;;6.77;;
11777;SDS011;5946;51.770;8.548;2023-07-31T00:41:21;9.63;;;7.50;;
11777;SDS011;5946;51.770;8.548;2023-07-31T00:43:47;12.13;;;8.17;;
11777;SDS011;5946;51.770;8.548;2023-07-31T00:46:13;10.77;;;8.23;;
11777;SDS011;5946;51.770;8.548;2023-07-31T00:48:39;8.97;;;7.73;;
11777;SDS011;5946;51.770;8.548;2023-07-31T00:51:05;11.27;;;8.37;;
11777;SDS011;5946;51.770;8.548;2023-07-31T00:53:31;13.67;;;8.83;;
11777;SDS011;5946;51.770;8.548;2023-07-31T00:55:57;10.40;;;8.60;;
11777;SDS011;5946;51.770;8.548;2023-07-31T00:58:23;11.47;;;8.47;;
11777;SDS011;5946;51.770;8.548;2023-07-31T01:00:49;11.27;;;8.53;;
11777;SDS011;5946;51.770;8.548;2023-07-31T01:03:16;11.53;;;9.37;;
11777;SDS011;5946;51.770;8.548;2023-07-31T01:05:50;13.27;;;9.30;;
11777;SDS011;5946;51.770;8.548;2023-07-31T01:08:32;10.03;;;8.47;;
11777;SDS011;5946;51.770;8.548;2023-07-31T01:11:15;10.70;;;8.47;;
11777;SDS011;5946;51.770;8.548;2023-07-31T01:13:42;13.23;;;9.27;;
11777;SDS011;5946;51.770;8.548;2023-07-31T01:16:08;10.70;;;8.20;;
11777;SDS011;5946;51.770;8.548;2023-07-31T01:18:34;11.47;;;8.60;;
11777;SDS011;5946;51.770;8.548;2023-07-31T01:21:06;12.60;;;8.37;;
11777;SDS011;5946;51.770;8.548;2023-07-31T01:26:23;8.97;;;7.23;;
11777;SDS011;5946;51.770;8.548;2023-07-31T01:31:24;9.23;;;7.40;;
11777;SDS011;5946;51.770;8.548;2023-07-31T01:33:53;8.87;;;7.23;;
11777;SDS011;5946;51.770;8.548;2023-07-31T01:36:19;8.33;;;6.43;;
11777;SDS011;5946;51.770;8.548;2023-07-31T01:38:45;7.37;;;5.80;;
11777;SDS011;5946;51.770;8.548;2023-07-31T01:41:11;7.20;;;5.77;;
11777;SDS011;5946;51.770;8.548;2023-07-31T01:43:38;6.77;;;5.70;;
11777;SDS011;5946;51.770;8.548;2023-07-31T01:46:04;9.20;;;6.47;;
11777;SDS011;5946;51.770;8.548;2023-07-31T01:48:30;6.00;;;5.27;;
11777;SDS011;5946;51.770;8.548;2023-07-31T01:51:00;7.17;;;4.30;;
11777;SDS011;5946;51.770;8.548;2023-07-31T01:53:27;4.13;;;3.73;;
11777;SDS011;5946;51.770;8.548;2023-07-31T01:55:53;5.03;;;3.40;;
11777;SDS011;5946;51.770;8.548;2023-07-31T01:58:19;4.23;;;3.30;;
11777;SDS011;5946;51.770;8.548;2023-07-31T02:00:45;3.93;;;3.30;;
11777;SDS011;5946;51.770;8.548;2023-07-31T02:03:11;4.23;;;3.80;;
11777;SDS011;5946;51.770;8.548;2023-07-31T02:05:43;6.00;;;2.93;;
11777;SDS011;5946;51.770;8.548;2023-07-31T02:08:09;3.40;;;2.93;;
11777;SDS011;5946;51.770;8.548;2023-07-31T02:10:35;5.17;;;3.03;;
11777;SDS011;5946;51.770;8.548;2023-07-31T02:13:01;3.30;;;3.00;;
11777;SDS011;5946;51.770;8.548;2023-07-31T02:15:29;3.30;;;3.00;;
11777;SDS011;5946;51.770;8.548;2023-07-31T02:17:55;3.73;;;3.40;;
11777;SDS011;5946;51.770;8.548;2023-07-31T02:20:21;5.87;;;4.00;;
11777;SDS011;5946;51.770;8.548;2023-07-31T02:22:47;5.57;;;4.00;;
11777;SDS011;5946;51.770;8.548;2023-07-31T02:25:13;3.83;;;3.43;;
11777;SDS011;5946;51.770;8.548;2023-07-31T02:27:39;4.27;;;3.47;;
11777;SDS011;5946;51.770;8.548;2023-07-31T02:30:05;4.83;;;4.23;;
11777;SDS011;5946;51.770;8.548;2023-07-31T02:32:31;6.83;;;4.10;;
11777;SDS011;5946;51.770;8.548;2023-07-31T02:34:57;4.50;;;4.10;;
11777;SDS011;5946;51.770;8.548;2023-07-31T02:37:23;7.27;;;4.87;;
11777;SDS011;5946;51.770;8.548;2023-07-31T02:39:49;8.63;;;5.03;;
11777;SDS011;5946;51.770;8.548;2023-07-31T02:42:15;6.30;;;5.03;;
11777;SDS011;5946;51.770;8.548;2023-07-31T02:44:41;8.10;;;5.67;;
11777;SDS011;5946;51.770;8.548;2023-07-31T02:47:07;10.77;;;5.67;;
11777;SDS011;5946;51.770;8.548;2023-07-31T02:49:33;10.73;;;6.17;;
11777;SDS011;5946;51.770;8.548;2023-07-31T02:51:59;13.17;;;6.67;;
11777;SDS011;5946;51.770;8.548;2023-07-31T02:54:25;16.90;;;8.07;;
11777;SDS011;5946;51.770;8.548;2023-07-31T02:56:51;16.33;;;7.17;;
11777;SDS011;5946;51.770;8.548;2023-07-31T02:59:17;18.63;;;8.30;;
11777;SDS011;5946;51.770;8.548;2023-07-31T03:01:43;17.10;;;8.63;;
11777;SDS011;5946;51.770;8.548;2023-07-31T03:04:09;20.40;;;9.50;;
11777;SDS011;5946;51.770;8.548;2023-07-31T03:06:35;31.20;;;10.47;;
11777;SDS011;5946;51.770;8.548;2023-07-31T03:09:01;25.03;;;10.80;;
11777;SDS011;5946;51.770;8.548;2023-07-31T03:11:27;23.57;;;11.03;;
11777;SDS011;5946;51.770;8.548;2023-07-31T03:13:53;27.33;;;11.23;;
11777;SDS011;5946;51.770;8.548;2023-07-31T03:16:19;29.57;;;11.70;;
11777;SDS011;5946;51.770;8.548;2023-07-31T03:18:45;27.47;;;12.57;;
11777;SDS011;5946;51.770;8.548;2023-07-31T03:21:12;26.23;;;11.43;;
11777;SDS011;5946;51.770;8.548;2023-07-31T03:23:38;27.30;;;11.70;;
11777;SDS011;5946;51.770;8.548;2023-07-31T03:26:06;28.40;;;12.03;;
11777;SDS011;5946;51.770;8.548;2023-07-31T03:28:32;25.47;;;10.43;;
11777;SDS011;5946;51.770;8.548;2023-07-31T03:30:58;23.17;;;11.30;;
11777;SDS011;5946;51.770;8.548;2023-07-31T03:33:24;25.30;;;11.03;;
11777;SDS011;5946;51.770;8.548;2023-07-31T03:35:50;29.03;;;11.37;;
11777;SDS011;5946;51.770;8.548;2023-07-31T03:38:16;22.93;;;10.47;;
11777;SDS011;5946;51.770;8.548;2023-07-31T03:40:42;26.17;;;11.20;;
11777;SDS011;5946;51.770;8.548;2023-07-31T03:43:08;28.80;;;10.57;;
11777;SDS011;5946;51.770;8.548;2023-07-31T03:45:34;25.57;;;10.07;;
11777;SDS011;5946;51.770;8.548;2023-07-31T03:48:01;20.70;;;9.97;;
11777;SDS011;5946;51.770;8.548;2023-07-31T03:50:27;20.47;;;9.07;;
11777;SDS011;5946;51.770;8.548;2023-07-31T03:52:53;23.67;;;8.90;;
11777;SDS011;5946;51.770;8.548;2023-07-31T03:55:19;17.73;;;8.70;;
11777;SDS011;5946;51.770;8.548;2023-07-31T03:57:46;16.90;;;8.83;;
11777;SDS011;5946;51.770;8.548;2023-07-31T04:00:12;22.50;;;8.87;;
11777;SDS011;5946;51.770;8.548;2023-07-31T04:02:38;23.47;;;8.60;;
11777;SDS011;5946;51.770;8.548;2023-07-31T04:05:04;22.17;;;9.20;;
11777;SDS011;5946;51.770;8.548;2023-07-31T04:07:30;25.43;;;9.07;;
11777;SDS011;5946;51.770;8.548;2023-07-31T04:09:57;18.87;;;9.00;;
11777;SDS011;5946;51.770;8.548;2023-07-31T04:12:23;20.13;;;8.87;;
11777;SDS011;5946;51.770;8.548;2023-07-31T04:14:49;19.90;;;8.37;;
11777;SDS011;5946;51.770;8.548;2023-07-31T04:17:15;22.03;;;8.13;;
11777;SDS011;5946;51.770;8.548;2023-07-31T04:19:41;21.97;;;9.20;;
11777;SDS011;5946;51.770;8.548;2023-07-31T04:22:07;21.03;;;9.33;;
11777;SDS011;5946;51.770;8.548;2023-07-31T04:24:33;24.13;;;9.33;;
11777;SDS011;5946;51.770;8.548;2023-07-31T04:26:59;16.93;;;8.63;;
11777;SDS011;5946;51.770;8.548;2023-07-31T04:29:25;19.00;;;9.17;;
11777;SDS011;5946;51.770;8.548;2023-07-31T04:31:51;23.60;;;9.40;;
11777;SDS011;5946;51.770;8.548;2023-07-31T04:34:16;18.37;;;8.50;;
11777;SDS011;5946;51.770;8.548;2023-07-31T04:36:42;20.90;;;8.90;;
11777;SDS011;5946;51.770;8.548;2023-07-31T04:39:08;17.00;;;8.03;;
11777;SDS011;5946;51.770;8.548;2023-07-31T04:41:34;23.57;;;8.63;;
11777;SDS011;5946;51.770;8.548;2023-07-31T04:44:01;25.97;;;8.73;;
11777;SDS011;5946;51.770;8.548;2023-07-31T04:46:28;14.93;;;7.87;;
11777;SDS011;5946;51.770;8.548;2023-07-31T04:48:54;22.50;;;8.40;;
11777;SDS011;5946;51.770;8.548;2023-07-31T04:51:20;20.93;;;8.00;;
11777;SDS011;5946;51.770;8.548;2023-07-31T04:53:46;18.77;;;7.40;;
11777;SDS011;5946;51.770;8.548;2023-07-31T04:56:12;17.37;;;7.10;;
11777;SDS011;5946;51.770;8.548;2023-07-31T04:58:40;21.60;;;7.10;;
11777;SDS011;5946;51.770;8.548;2023-07-31T05:01:06;14.13;;;6.40;;
11777;SDS011;5946;51.770;8.548;2023-07-31T05:03:32;16.90;;;6.23;;
11777;SDS011;5946;51.770;8.548;2023-07-31T05:05:58;15.00;;;6.23;;
11777;SDS011;5946;51.770;8.548;2023-07-31T05:08:24;17.03;;;6.47;;
11777;SDS011;5946;51.770;8.548;2023-07-31T05:10:50;14.33;;;6.53;;
11777;SDS011;5946;51.770;8.548;2023-07-31T05:13:16;13.17;;;6.13;;
11777;SDS011;5946;51.770;8.548;2023-07-31T05:15:42;15.60;;;6.27;;
11777;SDS011;5946;51.770;8.548;2023-07-31T05:18:08;18.93;;;6.20;;
11777;SDS011;5946;51.770;8.548;2023-07-31T05:20:34;15.63;;;6.13;;
11777;SDS011;5946;51.770;8.548;2023-07-31T05:23:00;12.63;;;5.43;;
11777;SDS011;5946;51.770;8.548;2023-07-31T05:25:26;11.93;;;5.60;;
11777;SDS011;5946;51.770;8.548;2023-07-31T05:27:52;14.97;;;5.73;;
11777;SDS011;5946;51.770;8.548;2023-07-31T05:30:18;15.03;;;5.20;;
11777;SDS011;5946;51.770;8.548;2023-07-31T05:32:44;11.83;;;6.10;;
11777;SDS011;5946;51.770;8.548;2023-07-31T05:35:10;13.30;;;5.07;;
11777;SDS011;5946;51.770;8.548;2023-07-31T05:37:36;17.70;;;5.77;;
11777;SDS011;5946;51.770;8.548;2023-07-31T05:40:02;14.33;;;5.73;;
11777;SDS011;5946;51.770;8.548;2023-07-31T05:42:28;15.60;;;5.70;;
11777;SDS011;5946;51.770;8.548;2023-07-31T05:44:54;9.50;;;5.30;;
11777;SDS011;5946;51.770;8.548;2023-07-31T05:47:19;14.87;;;5.57;;
11777;SDS011;5946;51.770;8.548;2023-07-31T05:49:45;11.50;;;5.40;;
11777;SDS011;5946;51.770;8.548;2023-07-31T05:52:11;12.30;;;5.30;;
11777;SDS011;5946;51.770;8.548;2023-07-31T05:54:37;16.10;;;6.03;;
11777;SDS011;5946;51.770;8.548;2023-07-31T05:57:03;14.07;;;6.43;;
11777;SDS011;5946;51.770;8.548;2023-07-31T05:59:29;15.10;;;5.90;;
11777;SDS011;5946;51.770;8.548;2023-07-31T06:01:58;13.43;;;5.33;;
11777;SDS011;5946;51.770;8.548;2023-07-31T06:04:23;17.63;;;5.97;;
11777;SDS011;5946;51.770;8.548;2023-07-31T06:06:50;12.07;;;5.43;;
11777;SDS011;5946;51.770;8.548;2023-07-31T06:09:16;13.57;;;5.43;;
11777;SDS011;5946;51.770;8.548;2023-07-31T06:11:42;9.00;;;5.20;;
11777;SDS011;5946;51.770;8.548;2023-07-31T06:14:08;13.23;;;5.70;;
11777;SDS011;5946;51.770;8.548;2023-07-31T06:16:34;15.83;;;5.37;;
11777;SDS011;5946;51.770;8.548;2023-07-31T06:19:00;14.93;;;5.37;;
11777;SDS011;5946;51.770;8.548;2023-07-31T06:21:26;12.13;;;5.50;;
11777;SDS011;5946;51.770;8.548;2023-07-31T06:23:52;15.50;;;6.10;;
11777;SDS011;5946;51.770;8.548;2023-07-31T06:26:18;14.30;;;4.97;;
11777;SDS011;5946;51.770;8.548;2023-07-31T06:28:44;15.27;;;5.20;;
11777;SDS011;5946;51.770;8.548;2023-07-31T06:31:10;11.93;;;5.83;;
11777;SDS011;5946;51.770;8.548;2023-07-31T06:33:36;14.70;;;5.37;;
11777;SDS011;5946;51.770;8.548;2023-07-31T06:36:02;13.37;;;5.30;;
11777;SDS011;5946;51.770;8.548;2023-07-31T06:38:28;12.47;;;5.30;;
11777;SDS011;5946;51.770;8.548;2023-07-31T06:40:54;9.83;;;5.00;;
11777;SDS011;5946;51.770;8.548;2023-07-31T06:43:20;10.73;;;5.13;;
11777;SDS011;5946;51.770;8.548;2023-07-31T06:45:46;11.70;;;4.87;;
11777;SDS011;5946;51.770;8.548;2023-07-31T06:48:15;11.13;;;4.87;;
11777;SDS011;5946;51.770;8.548;2023-07-31T06:50:41;12.97;;;4.93;;
11777;SDS011;5946;51.770;8.548;2023-07-31T06:53:07;10.27;;;4.70;;
11777;SDS011;5946;51.770;8.548;2023-07-31T06:55:33;12.33;;;5.23;;
11777;SDS011;5946;51.770;8.548;2023-07-31T06:57:59;10.93;;;5.07;;
11777;SDS011;5946;51.770;8.548;2023-07-31T07:00:25;10.90;;;5.53;;
11777;SDS011;5946;51.770;8.548;2023-07-31T07:02:51;13.97;;;5.90;;
11777;SDS011;5946;51.770;8.548;2023-07-31T07:05:17;11.80;;;5.67;;
11777;SDS011;5946;51.770;8.548;2023-07-31T07:07:43;15.43;;;6.03;;
11777;SDS011;5946;51.770;8.548;2023-07-31T07:10:09;14.00;;;6.23;;
11777;SDS011;5946;51.770;8.548;2023-07-31T07:12:35;16.30;;;6.57;;
11777;SDS011;5946;51.770;8.548;2023-07-31T07:15:02;15.60;;;6.70;;
11777;SDS011;5946;51.770;8.548;2023-07-31T07:17:28;14.77;;;7.07;;
11777;SDS011;5946;51.770;8.548;2023-07-31T07:19:57;16.60;;;6.90;;
11777;SDS011;5946;51.770;8.548;2023-07-31T07:22:23;14.90;;;6.97;;
11777;SDS011;5946;51.770;8.548;2023-07-31T07:24:50;14.73;;;6.60;;
11777;SDS011;5946;51.770;8.548;2023-07-31T07:27:16;14.50;;;7.37;;
11777;SDS011;5946;51.770;8.548;2023-07-31T07:29:42;13.33;;;6.60;;
11777;SDS011;5946;51.770;8.548;2023-07-31T07:32:08;14.30;;;6.83;;
11777;SDS011;5946;51.770;8.548;2023-07-31T07:34:34;13.30;;;7.17;;
11777;SDS011;5946;51.770;8.548;2023-07-31T07:37:00;16.40;;;7.10;;
11777;SDS011;5946;51.770;8.548;2023-07-31T07:39:26;12.27;;;7.47;;
11777;SDS011;5946;51.770;8.548;2023-07-31T07:41:52;13.17;;;7.40;;
11777;SDS011;5946;51.770;8.548;2023-07-31T07:44:19;13.60;;;7.80;;
11777;SDS011;5946;51.770;8.548;2023-07-31T07:46:45;17.43;;;8.80;;
11777;SDS011;5946;51.770;8.548;2023-07-31T07:49:10;16.27;;;8.87;;
11777;SDS011;5946;51.770;8.548;2023-07-31T07:51:36;18.83;;;9.40;;
11777;SDS011;5946;51.770;8.548;2023-07-31T07:54:02;19.13;;;9.60;;
11777;SDS011;5946;51.770;8.548;2023-07-31T07:56:28;14.60;;;9.60;;
11777;SDS011;5946;51.770;8.548;2023-07-31T07:58:54;18.13;;;10.57;;
11777;SDS011;5946;51.770;8.548;2023-07-31T08:01:20;17.23;;;9.90;;
11777;SDS011;5946;51.770;8.548;2023-07-31T08:03:47;19.53;;;10.50;;
11777;SDS011;5946;51.770;8.548;2023-07-31T08:06:13;19.27;;;11.17;;
11777;SDS011;5946;51.770;8.548;2023-07-31T08:08:39;22.13;;;11.67;;
11777;SDS011;5946;51.770;8.548;2023-07-31T08:11:05;22.37;;;10.50;;
11777;SDS011;5946;51.770;8.548;2023-07-31T08:13:31;17.63;;;10.80;;
11777;SDS011;5946;51.770;8.548;2023-07-31T08:15:57;21.90;;;10.33;;
11777;SDS011;5946;51.770;8.548;2023-07-31T08:18:23;20.97;;;11.07;;
11777;SDS011;5946;51.770;8.548;2023-07-31T08:20:49;18.70;;;9.80;;
11777;SDS011;5946;51.770;8.548;2023-07-31T08:23:15;17.80;;;10.10;;
11777;SDS011;5946;51.770;8.548;2023-07-31T08:25:41;14.73;;;9.60;;
11777;SDS011;5946;51.770;8.548;2023-07-31T08:28:07;19.33;;;10.60;;
11777;SDS011;5946;51.770;8.548;2023-07-31T08:30:33;19.63;;;10.93;;
11777;SDS011;5946;51.770;8.548;2023-07-31T08:32:59;18.90;;;10.20;;
11777;SDS011;5946;51.770;8.548;2023-07-31T08:35:26;18.37;;;9.53;;
11777;SDS011;5946;51.770;8.548;2023-07-31T08:37:55;18.63;;;9.83;;
11777;SDS011;5946;51.770;8.548;2023-07-31T08:40:21;19.30;;;10.73;;
11777;SDS011;5946;51.770;8.548;2023-07-31T08:42:47;17.40;;;10.33;;
11777;SDS011;5946;51.770;8.548;2023-07-31T08:45:18;16.27;;;9.73;;
11777;SDS011;5946;51.770;8.548;2023-07-31T08:47:44;17.43;;;9.73;;
11777;SDS011;5946;51.770;8.548;2023-07-31T08:50:15;18.27;;;9.43;;
11777;SDS011;5946;51.770;8.548;2023-07-31T08:52:41;16.33;;;9.73;;
11777;SDS011;5946;51.770;8.548;2023-07-31T08:55:07;15.57;;;8.50;;
11777;SDS011;5946;51.770;8.548;2023-07-31T08:57:34;14.13;;;8.97;;
11777;SDS011;5946;51.770;8.548;2023-07-31T09:00:00;14.93;;;9.13;;
11777;SDS011;5946;51.770;8.548;2023-07-31T09:02:29;15.63;;;9.47;;
11777;SDS011;5946;51.770;8.548;2023-07-31T09:04:57;13.77;;;8.70;;
11777;SDS011;5946;51.770;8.548;2023-07-31T09:07:23;13.90;;;8.40;;
11777;SDS011;5946;51.770;8.548;2023-07-31T09:09:50;13.97;;;9.37;;
11777;SDS011;5946;51.770;8.548;2023-07-31T09:12:16;16.27;;;9.27;;
11777;SDS011;5946;51.770;8.548;2023-07-31T09:14:42;19.20;;;9.37;;
11777;SDS011;5946;51.770;8.548;2023-07-31T09:17:09;15.07;;;9.20;;
11777;SDS011;5946;51.770;8.548;2023-07-31T09:19:36;13.93;;;8.50;;
11777;SDS011;5946;51.770;8.548;2023-07-31T09:22:03;11.83;;;7.57;;
11777;SDS011;5946;51.770;8.548;2023-07-31T09:24:29;13.73;;;7.60;;
11777;SDS011;5946;51.770;8.548;2023-07-31T09:26:56;13.03;;;7.33;;
11777;SDS011;5946;51.770;8.548;2023-07-31T09:29:23;18.13;;;7.40;;
11777;SDS011;5946;51.770;8.548;2023-07-31T09:31:50;15.97;;;7.00;;
11777;SDS011;5946;51.770;8.548;2023-07-31T09:34:16;19.37;;;7.00;;
11777;SDS011;5946;51.770;8.548;2023-07-31T09:36:45;14.33;;;6.77;;
11777;SDS011;5946;51.770;8.548;2023-07-31T09:39:12;10.87;;;6.50;;
11777;SDS011;5946;51.770;8.548;2023-07-31T09:41:39;10.13;;;5.93;;
11777;SDS011;5946;51.770;8.548;2023-07-31T09:44:05;9.27;;;5.83;;
11777;SDS011;5946;51.770;8.548;2023-07-31T09:46:32;8.90;;;5.70;;
11777;SDS011;5946;51.770;8.548;2023-07-31T09:49:07;10.17;;;5.40;;
11777;SDS011;5946;51.770;8.548;2023-07-31T09:51:34;10.30;;;5.40;;
11777;SDS011;5946;51.770;8.548;2023-07-31T09:54:03;12.60;;;5.40;;
11777;SDS011;5946;51.770;8.548;2023-07-31T09:56:29;9.90;;;5.37;;
11777;SDS011;5946;51.770;8.548;2023-07-31T09:58:58;6.37;;;4.23;;
11777;SDS011;5946;51.770;8.548;2023-07-31T10:01:24;8.80;;;4.73;;
11777;SDS011;5946;51.770;8.548;2023-07-31T10:03:50;5.27;;;3.87;;
11777;SDS011;5946;51.770;8.548;2023-07-31T10:06:16;6.17;;;4.60;;
11777;SDS011;5946;51.770;8.548;2023-07-31T10:08:44;7.87;;;4.23;;
11777;SDS011;5946;51.770;8.548;2023-07-31T10:11:12;6.83;;;3.43;;
11777;SDS011;5946;51.770;8.548;2023-07-31T10:13:39;5.30;;;3.53;;
11777;SDS011;5946;51.770;8.548;2023-07-31T10:16:06;5.27;;;3.77;;
11777;SDS011;5946;51.770;8.548;2023-07-31T10:18:32;6.90;;;3.80;;
11777;SDS011;5946;51.770;8.548;2023-07-31T10:20:58;5.33;;;3.53;;
11777;SDS011;5946;51.770;8.548;2023-07-31T10:23:24;6.77;;;3.70;;
11777;SDS011;5946;51.770;8.548;2023-07-31T10:25:51;4.70;;;3.70;;
11777;SDS011;5946;51.770;8.548;2023-07-31T10:28:19;4.70;;;3.80;;
11777;SDS011;5946;51.770;8.548;2023-07-31T10:30:46;5.20;;;4.20;;
11777;SDS011;5946;51.770;8.548;2023-07-31T10:33:12;5.10;;;4.07;;
11777;SDS011;5946;51.770;8.548;2023-07-31T10:35:38;6.80;;;4.17;;
11777;SDS011;5946;51.770;8.548;2023-07-31T10:38:11;6.87;;;4.43;;
11777;SDS011;5946;51.770;8.548;2023-07-31T10:40:38;5.53;;;3.70;;
11777;SDS011;5946;51.770;8.548;2023-07-31T10:43:04;5.83;;;4.30;;
11777;SDS011;5946;51.770;8.548;2023-07-31T10:45:34;6.73;;;4.50;;
11777;SDS011;5946;51.770;8.548;2023-07-31T10:48:15;8.17;;;5.40;;
11777;SDS011;5946;51.770;8.548;2023-07-31T10:53:37;10.40;;;5.10;;
11777;SDS011;5946;51.770;8.548;2023-07-31T10:56:04;7.37;;;5.47;;
11777;SDS011;5946;51.770;8.548;2023-07-31T10:58:30;4.37;;;3.80;;
11777;SDS011;5946;51.770;8.548;2023-07-31T11:01:00;5.03;;;2.90;;
11777;SDS011;5946;51.770;8.548;2023-07-31T11:03:44;4.90;;;2.73;;
11777;SDS011;5946;51.770;8.548;2023-07-31T11:06:11;4.37;;;2.73;;
11777;SDS011;5946;51.770;8.548;2023-07-31T11:08:43;2.60;;;2.40;;
11777;SDS011;5946;51.770;8.548;2023-07-31T11:11:10;3.43;;;2.50;;
11777;SDS011;5946;51.770;8.548;2023-07-31T11:13:44;5.40;;;2.70;;
11777;SDS011;5946;51.770;8.548;2023-07-31T11:16:11;6.73;;;2.47;;
11777;SDS011;5946;51.770;8.548;2023-07-31T11:18:38;5.53;;;2.40;;
11777;SDS011;5946;51.770;8.548;2023-07-31T11:21:05;3.73;;;2.47;;
11777;SDS011;5946;51.770;8.548;2023-07-31T11:23:31;2.40;;;2.20;;
11777;SDS011;5946;51.770;8.548;2023-07-31T11:26:00;3.23;;;2.40;;
11777;SDS011;5946;51.770;8.548;2023-07-31T11:28:30;3.20;;;2.30;;
11777;SDS011;5946;51.770;8.548;2023-07-31T11:30:56;2.90;;;2.37;;
11777;SDS011;5946;51.770;8.548;2023-07-31T11:33:22;2.83;;;2.30;;
11777;SDS011;5946;51.770;8.548;2023-07-31T11:35:48;4.07;;;2.47;;
11777;SDS011;5946;51.770;8.548;2023-07-31T11:38:21;2.50;;;2.20;;
11777;SDS011;5946;51.770;8.548;2023-07-31T11:40:50;5.00;;;2.27;;
11777;SDS011;5946;51.770;8.548;2023-07-31T11:43:17;3.00;;;2.27;;
11777;SDS011;5946;51.770;8.548;2023-07-31T11:45:47;2.80;;;2.17;;
11777;SDS011;5946;51.770;8.548;2023-07-31T11:48:26;2.23;;;1.70;;
11777;SDS011;5946;51.770;8.548;2023-07-31T11:51:00;2.33;;;1.80;;
11777;SDS011;5946;51.770;8.548;2023-07-31T11:55:56;2.00;;;1.80;;
11777;SDS011;5946;51.770;8.548;2023-07-31T11:58:23;2.60;;;1.60;;
11777;SDS011;5946;51.770;8.548;2023-07-31T12:00:49;1.47;;;1.30;;
11777;SDS011;5946;51.770;8.548;2023-07-31T12:03:15;1.60;;;1.50;;
11777;SDS011;5946;51.770;8.548;2023-07-31T12:05:41;1.80;;;1.70;;
11777;SDS011;5946;51.770;8.548;2023-07-31T12:08:11;2.03;;;1.83;;
11777;SDS011;5946;51.770;8.548;2023-07-31T12:10:37;2.43;;;1.57;;
11777;SDS011;5946;51.770;8.548;2023-07-31T12:13:05;1.93;;;1.60;;
11777;SDS011;5946;51.770;8.548;2023-07-31T12:15:35;2.37;;;1.57;;
11777;SDS011;5946;51.770;8.548;2023-07-31T12:18:03;1.60;;;1.40;;
11777;SDS011;5946;51.770;8.548;2023-07-31T12:20:30;1.70;;;1.10;;
11777;SDS011;5946;51.770;8.548;2023-07-31T12:22:56;1.10;;;1.00;;
11777;SDS011;5946;51.770;8.548;2023-07-31T12:25:23;4.03;;;1.60;;
11777;SDS011;5946;51.770;8.548;2023-07-31T12:27:50;2.03;;;1.30;;
11777;SDS011;5946;51.770;8.548;2023-07-31T12:30:26;1.10;;;1.10;;
11777;SDS011;5946;51.770;8.548;2023-07-31T12:32:52;4.27;;;1.27;;
11777;SDS011;5946;51.770;8.548;2023-07-31T12:35:18;2.17;;;1.57;;
11777;SDS011;5946;51.770;8.548;2023-07-31T12:37:44;1.40;;;1.30;;
11777;SDS011;5946;51.770;8.548;2023-07-31T12:40:10;1.63;;;1.50;;
11777;SDS011;5946;51.770;8.548;2023-07-31T12:42:37;2.80;;;1.77;;
11777;SDS011;5946;51.770;8.548;2023-07-31T12:45:03;4.57;;;1.73;;
11777;SDS011;5946;51.770;8.548;2023-07-31T12:47:29;5.07;;;2.40;;
11777;SDS011;5946;51.770;8.548;2023-07-31T12:49:55;2.43;;;2.00;;
11777;SDS011;5946;51.770;8.548;2023-07-31T12:52:21;4.07;;;2.17;;
11777;SDS011;5946;51.770;8.548;2023-07-31T12:54:47;3.07;;;2.27;;
11777;SDS011;5946;51.770;8.548;2023-07-31T12:57:13;4.73;;;2.40;;
11777;SDS011;5946;51.770;8.548;2023-07-31T12:59:39;3.07;;;2.77;;
11777;SDS011;5946;51.770;8.548;2023-07-31T13:02:05;2.97;;;2.67;;
11777;SDS011;5946;51.770;8.548;2023-07-31T13:04:31;3.80;;;2.50;;
11777;SDS011;5946;51.770;8.548;2023-07-31T13:06:57;3.10;;;2.60;;
11777;SDS011;5946;51.770;8.548;2023-07-31T13:09:23;7.07;;;2.87;;
11777;SDS011;5946;51.770;8.548;2023-07-31T13:11:49;4.60;;;2.57;;
11777;SDS011;5946;51.770;8.548;2023-07-31T13:14:15;2.60;;;2.40;;
11777;SDS011;5946;51.770;8.548;2023-07-31T13:16:42;3.90;;;2.77;;
11777;SDS011;5946;51.770;8.548;2023-07-31T13:19:07;2.73;;;2.53;;
11777;SDS011;5946;51.770;8.548;2023-07-31T13:21:33;3.23;;;2.20;;
11777;SDS011;5946;51.770;8.548;2023-07-31T13:24:01;2.27;;;2.07;;
11777;SDS011;5946;51.770;8.548;2023-07-31T13:26:27;3.10;;;2.10;;
11777;SDS011;5946;51.770;8.548;2023-07-31T13:28:53;3.67;;;1.90;;
11777;SDS011;5946;51.770;8.548;2023-07-31T13:31:19;2.07;;;1.60;;
11777;SDS011;5946;51.770;8.548;2023-07-31T13:33:45;2.78;;;1.92;;
11777;SDS011;5946;51.770;8.548;2023-07-31T13:36:12;4.32;;;2.30;;
11777;SDS011;5946;51.770;8.548;2023-07-31T13:38:39;4.82;;;2.13;;
11777;SDS011;5946;51.770;8.548;2023-07-31T13:41:05;8.50;;;2.75;;
11777;SDS011;5946;51.770;8.548;2023-07-31T13:43:31;3.55;;;2.00;;
11777;SDS011;5946;51.770;8.548;2023-07-31T13:45:57;2.67;;;2.17;;
11777;SDS011;5946;51.770;8.548;2023-07-31T13:48:28;3.90;;;2.00;;
11777;SDS011;5946;51.770;8.548;2023-07-31T13:50:54;3.10;;;2.10;;
11777;SDS011;5946;51.770;8.548;2023-07-31T13:53:20;2.57;;;1.70;;
11777;SDS011;5946;51.770;8.548;2023-07-31T13:55:46;3.97;;;2.20;;
11777;SDS011;5946;51.770;8.548;2023-07-31T13:58:14;7.30;;;1.97;;
11777;SDS011;5946;51.770;8.548;2023-07-31T14:00:40;2.40;;;2.20;;
11777;SDS011;5946;51.770;8.548;2023-07-31T14:03:06;3.27;;;2.27;;
11777;SDS011;5946;51.770;8.548;2023-07-31T14:05:32;9.83;;;2.60;;
11777;SDS011;5946;51.770;8.548;2023-07-31T14:07:58;7.83;;;2.40;;
11777;SDS011;5946;51.770;8.548;2023-07-31T14:10:24;2.60;;;2.30;;
11777;SDS011;5946;51.770;8.548;2023-07-31T14:12:49;2.00;;;1.90;;
11777;SDS011;5946;51.770;8.548;2023-07-31T14:15:15;2.33;;;2.10;;
11777;SDS011;5946;51.770;8.548;2023-07-31T14:17:41;8.17;;;2.30;;
11777;SDS011;5946;51.770;8.548;2023-07-31T14:20:08;3.87;;;2.00;;
11777;SDS011;5946;51.770;8.548;2023-07-31T14:22:34;5.03;;;2.20;;
11777;SDS011;5946;51.770;8.548;2023-07-31T14:25:00;4.67;;;2.70;;
11777;SDS011;5946;51.770;8.548;2023-07-31T14:27:26;2.93;;;2.30;;
11777;SDS011;5946;51.770;8.548;2023-07-31T14:29:52;2.70;;;2.50;;
11777;SDS011;5946;51.770;8.548;2023-07-31T14:32:18;2.30;;;2.07;;
11777;SDS011;5946;51.770;8.548;2023-07-31T14:34:44;2.73;;;2.27;;
11777;SDS011;5946;51.770;8.548;2023-07-31T14:37:10;2.43;;;2.23;;
11777;SDS011;5946;51.770;8.548;2023-07-31T14:39:36;2.80;;;1.93;;
11777;SDS011;5946;51.770;8.548;2023-07-31T14:42:02;2.80;;;2.00;;
11777;SDS011;5946;51.770;8.548;2023-07-31T14:44:28;2.23;;;2.03;;
11777;SDS011;5946;51.770;8.548;2023-07-31T14:46:54;3.87;;;1.93;;
11777;SDS011;5946;51.770;8.548;2023-07-31T14:49:20;3.23;;;2.07;;
11777;SDS011;5946;51.770;8.548;2023-07-31T14:51:46;2.87;;;1.87;;
11777;SDS011;5946;51.770;8.548;2023-07-31T14:54:12;2.00;;;1.80;;
11777;SDS011;5946;51.770;8.548;2023-07-31T14:56:38;3.80;;;1.93;;
11777;SDS011;5946;51.770;8.548;2023-07-31T14:59:04;5.23;;;2.10;;
11777;SDS011;5946;51.770;8.548;2023-07-31T15:01:30;4.33;;;2.17;;